createdAt,value
2022-12-16T00:01:25.182Z,10.73
2022-12-16T00:03:55.171Z,10.80
2022-12-16T00:06:23.932Z,10.07
2022-12-16T00:08:51.816Z,11.23
2022-12-16T00:11:19.857Z,10.50
2022-12-16T00:13:47.616Z,10.63
2022-12-16T00:16:16.784Z,10.27
2022-12-16T00:18:44.189Z,10.30
2022-12-16T00:21:11.050Z,10.83
2022-12-16T00:23:44.364Z,11.37
2022-12-16T00:26:12.232Z,10.30
2022-12-16T00:28:39.799Z,10.50
2022-12-16T00:31:07.088Z,9.03
2022-12-16T00:33:34.254Z,10.10
2022-12-16T00:36:01.153Z,10.10
2022-12-16T00:38:27.824Z,10.10
2022-12-16T00:40:54.803Z,9.67
2022-12-16T00:43:21.694Z,9.70
2022-12-16T00:45:48.989Z,9.07
2022-12-16T00:48:16.145Z,9.80
2022-12-16T00:50:49.395Z,9.03
2022-12-16T00:53:19.528Z,9.50
2022-12-16T00:55:46.485Z,8.60
2022-12-16T00:58:13.625Z,8.90
2022-12-16T01:00:40.917Z,9.90
2022-12-16T01:03:07.608Z,9.10
2022-12-16T01:05:34.313Z,8.97
2022-12-16T01:08:00.941Z,8.57
2022-12-16T01:10:27.492Z,9.03
2022-12-16T01:12:54.027Z,9.73
2022-12-16T01:15:21.858Z,8.90
2022-12-16T01:17:49.612Z,8.57
2022-12-16T01:20:16.238Z,9.00
2022-12-16T01:22:42.893Z,8.60
2022-12-16T01:25:12.819Z,8.63
2022-12-16T01:27:39.852Z,8.03
2022-12-16T01:30:07.257Z,7.90
2022-12-16T01:32:33.822Z,9.23
2022-12-16T01:35:00.502Z,7.60
2022-12-16T01:37:27.060Z,8.47
2022-12-16T01:39:53.589Z,7.93
2022-12-16T01:42:22.734Z,8.00
2022-12-16T01:44:52.069Z,7.80
2022-12-16T01:47:23.932Z,7.80
2022-12-16T01:50:03.700Z,8.17
2022-12-16T01:52:33.953Z,8.90
2022-12-16T01:55:07.118Z,7.40
2022-12-16T01:57:41.883Z,8.43
2022-12-16T02:00:10.350Z,8.30
2022-12-16T02:02:37.251Z,8.40
2022-12-16T02:05:22.354Z,8.00
2022-12-16T02:08:07.449Z,7.93
2022-12-16T02:10:55.036Z,7.33
2022-12-16T02:13:58.859Z,6.80
2022-12-16T02:16:39.334Z,7.70
2022-12-16T02:19:29.858Z,7.57
2022-12-16T02:22:40.159Z,7.70
2022-12-16T02:25:31.111Z,8.03
2022-12-16T02:28:23.256Z,7.60
2022-12-16T02:30:56.176Z,7.50
2022-12-16T02:33:26.114Z,7.67
2022-12-16T02:36:00.160Z,6.97
2022-12-16T02:38:56.129Z,7.80
2022-12-16T02:42:01.700Z,7.40
2022-12-16T02:45:03.253Z,7.60
2022-12-16T02:47:30.834Z,8.37
2022-12-16T02:49:57.506Z,7.60
2022-12-16T02:52:33.500Z,7.33
2022-12-16T02:55:03.057Z,7.17
2022-12-16T02:57:50.119Z,6.97
2022-12-16T03:00:22.499Z,7.77
2022-12-16T03:03:03.700Z,7.17
2022-12-16T03:05:37.713Z,7.27
2022-12-16T03:08:08.693Z,7.10
2022-12-16T03:10:41.057Z,7.13
2022-12-16T03:13:10.683Z,6.80
2022-12-16T03:15:38.957Z,7.17
2022-12-16T03:18:09.211Z,6.90
2022-12-16T03:20:52.232Z,7.23
2022-12-16T03:23:27.599Z,7.63
2022-12-16T03:26:00.694Z,6.60
2022-12-16T03:28:50.605Z,7.63
2022-12-16T03:31:26.317Z,7.53
2022-12-16T03:34:29.151Z,7.20
2022-12-16T03:37:02.241Z,6.93
2022-12-16T03:39:29.930Z,6.63
2022-12-16T03:41:57.013Z,6.70
2022-12-16T03:44:25.180Z,7.80
2022-12-16T03:46:52.588Z,6.67
2022-12-16T03:49:19.413Z,7.07
2022-12-16T03:51:45.940Z,6.63
2022-12-16T03:54:12.491Z,7.13
2022-12-16T03:56:39.027Z,7.40
2022-12-16T03:59:05.751Z,7.87
2022-12-16T04:01:32.424Z,7.23
2022-12-16T04:03:59.115Z,7.53
2022-12-16T04:06:25.702Z,7.30
2022-12-16T04:08:52.237Z,7.07
2022-12-16T04:11:37.360Z,6.90
2022-12-16T04:14:22.713Z,6.97
2022-12-16T04:17:07.931Z,6.60
2022-12-16T04:19:55.387Z,6.93
2022-12-16T04:22:49.145Z,6.37
2022-12-16T04:25:19.615Z,6.23
2022-12-16T04:27:48.863Z,6.90
2022-12-16T04:30:19.832Z,6.77
2022-12-16T04:33:21.765Z,7.20
2022-12-16T04:36:07.604Z,6.83
2022-12-16T04:38:52.955Z,6.53
2022-12-16T04:41:38.353Z,7.10
2022-12-16T04:44:24.237Z,6.30
2022-12-16T04:47:09.595Z,7.33
2022-12-16T04:49:54.904Z,7.40
2022-12-16T04:52:40.281Z,6.87
2022-12-16T04:55:26.182Z,6.53
2022-12-16T04:58:13.497Z,6.30
2022-12-16T05:00:59.824Z,6.43
2022-12-16T05:03:46.001Z,6.83
2022-12-16T05:06:31.896Z,5.60
2022-12-16T05:09:17.745Z,6.90
2022-12-16T05:12:03.702Z,6.77
2022-12-16T05:14:49.599Z,7.00
2022-12-16T05:17:34.956Z,6.80
2022-12-16T05:20:20.247Z,6.27
2022-12-16T05:23:05.799Z,6.33
2022-12-16T05:25:51.055Z,6.37
2022-12-16T05:28:37.543Z,6.60
2022-12-16T05:31:22.939Z,6.33
2022-12-16T05:34:08.012Z,6.63
2022-12-16T05:36:53.291Z,6.20
2022-12-16T05:39:38.461Z,6.73
2022-12-16T05:42:24.332Z,6.10
2022-12-16T05:45:09.630Z,6.63
2022-12-16T05:47:55.021Z,6.00
2022-12-16T05:50:43.413Z,6.57
2022-12-16T05:53:29.533Z,6.20
2022-12-16T05:56:15.179Z,6.60
2022-12-16T05:59:00.426Z,6.90
2022-12-16T06:01:45.635Z,5.73
2022-12-16T06:05:03.240Z,5.57
2022-12-16T06:07:48.579Z,6.30
2022-12-16T06:10:33.964Z,6.80
2022-12-16T06:13:19.830Z,6.20
2022-12-16T06:16:08.879Z,17.27
2022-12-16T06:18:54.204Z,8.10
2022-12-16T06:21:39.976Z,6.70
2022-12-16T06:24:25.473Z,6.40
2022-12-16T06:27:10.752Z,7.20
2022-12-16T06:29:56.021Z,6.90
2022-12-16T06:32:41.644Z,6.80
2022-12-16T06:35:27.122Z,6.47
2022-12-16T06:38:12.489Z,6.47
2022-12-16T06:41:00.249Z,6.13
2022-12-16T06:43:46.181Z,6.40
2022-12-16T06:46:32.016Z,6.13
2022-12-16T06:49:17.304Z,6.50
2022-12-16T06:52:02.630Z,6.03
2022-12-16T06:54:47.931Z,6.73
2022-12-16T06:57:33.293Z,6.20
2022-12-16T07:00:18.631Z,6.70
2022-12-16T07:03:04.748Z,6.17
2022-12-16T07:05:49.827Z,6.97
2022-12-16T07:08:35.259Z,6.47
2022-12-16T07:11:20.470Z,6.10
2022-12-16T07:14:05.845Z,23.77
2022-12-16T07:16:51.361Z,8.53
2022-12-16T07:19:36.667Z,9.30
2022-12-16T07:22:22.060Z,8.90
2022-12-16T07:25:07.312Z,8.70
2022-12-16T07:27:52.520Z,8.00
2022-12-16T07:30:38.375Z,8.40
2022-12-16T07:33:23.655Z,8.33
2022-12-16T07:36:09.060Z,8.97
2022-12-16T07:38:54.329Z,7.50
2022-12-16T07:41:39.681Z,7.43
2022-12-16T07:44:24.610Z,8.33
2022-12-16T07:47:10.087Z,6.87
2022-12-16T07:49:55.680Z,7.27
2022-12-16T07:52:41.282Z,7.63
2022-12-16T07:55:27.030Z,8.53
2022-12-16T07:58:12.296Z,7.00
2022-12-16T08:00:57.763Z,7.03
2022-12-16T08:03:43.103Z,7.47
2022-12-16T08:06:28.496Z,7.20
2022-12-16T08:09:14.050Z,6.73
2022-12-16T08:11:59.164Z,7.53
2022-12-16T08:14:44.618Z,8.10
2022-12-16T08:17:29.775Z,6.93
2022-12-16T08:20:15.167Z,8.73
2022-12-16T08:23:00.500Z,25.57
2022-12-16T08:25:45.749Z,20.27
2022-12-16T08:28:31.275Z,19.50
2022-12-16T08:31:16.265Z,18.13
2022-12-16T08:34:02.222Z,17.83
2022-12-16T08:36:47.581Z,16.47
2022-12-16T08:39:32.822Z,15.83
2022-12-16T08:42:18.270Z,15.70
2022-12-16T08:45:03.260Z,14.17
2022-12-16T08:47:49.088Z,15.20
2022-12-16T08:50:34.831Z,14.43
2022-12-16T08:53:20.208Z,14.00
2022-12-16T08:56:05.784Z,13.97
2022-12-16T08:58:51.059Z,12.93
2022-12-16T09:01:38.037Z,13.00
2022-12-16T09:04:23.346Z,13.57
2022-12-16T09:07:08.407Z,11.83
2022-12-16T09:09:54.213Z,12.33
2022-12-16T09:12:39.404Z,11.50
2022-12-16T09:15:25.086Z,12.80
2022-12-16T09:18:14.677Z,10.80
2022-12-16T09:20:59.914Z,11.60
2022-12-16T09:23:45.337Z,10.87
2022-12-16T09:26:30.706Z,10.33
2022-12-16T09:29:16.202Z,11.60
2022-12-16T09:32:01.501Z,11.03
2022-12-16T09:34:46.791Z,11.60
2022-12-16T09:37:32.067Z,10.87
2022-12-16T09:40:17.460Z,11.53
2022-12-16T09:43:24.904Z,10.07
2022-12-16T09:46:48.889Z,11.47
2022-12-16T09:50:03.810Z,9.53
2022-12-16T09:52:57.872Z,9.90
2022-12-16T09:55:51.844Z,10.30
2022-12-16T09:58:41.057Z,10.73
2022-12-16T10:01:31.219Z,11.10
2022-12-16T10:04:16.936Z,9.90
2022-12-16T10:07:11.082Z,10.03
2022-12-16T10:10:18.691Z,10.23
2022-12-16T10:13:36.950Z,9.27
2022-12-16T10:16:43.479Z,10.30
2022-12-16T10:19:52.257Z,8.80
2022-12-16T10:22:59.986Z,10.37
2022-12-16T10:25:53.300Z,9.47
2022-12-16T10:28:55.491Z,9.57
2022-12-16T10:31:40.764Z,8.40
2022-12-16T10:34:53.950Z,9.97
2022-12-16T10:38:00.598Z,25.20
2022-12-16T10:40:49.095Z,24.63
2022-12-16T10:43:43.033Z,20.30
2022-12-16T10:46:42.543Z,19.20
2022-12-16T10:49:33.865Z,16.40
2022-12-16T10:52:19.644Z,16.83
2022-12-16T10:55:10.587Z,16.10
2022-12-16T10:58:23.509Z,15.60
2022-12-16T11:01:11.048Z,15.73
2022-12-16T11:03:58.638Z,14.70
2022-12-16T11:06:58.641Z,13.70
2022-12-16T11:10:01.668Z,14.07
2022-12-16T11:12:51.170Z,12.73
2022-12-16T11:15:43.888Z,16.73
2022-12-16T11:18:33.263Z,12.63
2022-12-16T11:21:30.754Z,12.60
2022-12-16T11:24:31.017Z,12.47
2022-12-16T11:27:25.208Z,13.10
2022-12-16T11:30:31.757Z,12.07
2022-12-16T11:33:21.200Z,12.10
2022-12-16T11:36:13.697Z,11.57
2022-12-16T11:39:05.124Z,11.90
2022-12-16T11:42:04.757Z,11.57
2022-12-16T11:45:07.323Z,10.07
2022-12-16T11:48:07.833Z,12.60
2022-12-16T11:50:58.550Z,12.27
2022-12-16T11:53:46.989Z,14.17
2022-12-16T11:56:38.900Z,15.23
2022-12-16T11:59:55.360Z,22.77
2022-12-16T12:03:00.249Z,28.93
2022-12-16T12:06:22.307Z,24.23
2022-12-16T12:09:21.100Z,24.23
2022-12-16T12:12:19.035Z,22.77
2022-12-16T12:15:11.605Z,22.67
2022-12-16T12:18:07.057Z,21.57
2022-12-16T12:20:54.932Z,20.33
2022-12-16T12:23:48.546Z,21.40
2022-12-16T12:26:42.690Z,23.10
2022-12-16T12:29:30.659Z,23.80
2022-12-16T12:32:23.500Z,22.83
2022-12-16T12:35:25.919Z,21.23
2022-12-16T12:38:24.947Z,23.00
2022-12-16T12:41:18.626Z,22.67
2022-12-16T12:44:20.907Z,23.67
2022-12-16T12:47:13.852Z,21.63
2022-12-16T12:50:23.221Z,21.43
2022-12-16T12:53:20.165Z,22.03
2022-12-16T12:56:42.307Z,21.23
2022-12-16T12:59:36.316Z,20.97
2022-12-16T13:02:24.375Z,20.50
2022-12-16T13:05:11.134Z,20.43
2022-12-16T13:07:56.395Z,18.83
2022-12-16T13:10:44.161Z,19.17
2022-12-16T13:13:49.565Z,18.53
2022-12-16T13:17:03.739Z,18.47
2022-12-16T13:19:48.912Z,18.87
2022-12-16T13:22:51.054Z,19.13
2022-12-16T13:25:55.932Z,17.87
2022-12-16T13:28:52.946Z,19.13
2022-12-16T13:31:39.021Z,19.70
2022-12-16T13:34:38.318Z,17.10
2022-12-16T13:37:30.976Z,17.63
2022-12-16T13:40:31.161Z,18.23
2022-12-16T13:43:20.686Z,16.70
2022-12-16T13:46:23.715Z,17.10
2022-12-16T13:49:09.111Z,16.00
2022-12-16T13:51:56.941Z,15.90
2022-12-16T13:54:53.046Z,15.70
2022-12-16T13:57:42.025Z,16.00
2022-12-16T14:00:39.731Z,15.43
2022-12-16T14:03:42.095Z,16.40
2022-12-16T14:06:38.032Z,16.70
2022-12-16T14:09:23.483Z,16.67
2022-12-16T14:12:17.983Z,16.27
2022-12-16T14:15:19.072Z,14.90
2022-12-16T14:18:37.005Z,14.87
2022-12-16T14:21:30.214Z,15.17
2022-12-16T14:24:23.943Z,15.87
2022-12-16T14:27:09.293Z,13.57
2022-12-16T14:29:54.554Z,13.37
2022-12-16T14:32:51.021Z,13.07
2022-12-16T14:35:39.628Z,14.30
2022-12-16T14:38:39.749Z,13.30
2022-12-16T14:41:29.070Z,13.70
2022-12-16T14:44:14.293Z,13.30
2022-12-16T14:46:59.708Z,13.33
2022-12-16T14:50:01.218Z,13.20
2022-12-16T14:52:46.355Z,13.30
2022-12-16T14:55:44.013Z,13.03
2022-12-16T14:58:31.807Z,12.23
2022-12-16T15:01:38.608Z,12.17
2022-12-16T15:04:33.022Z,13.60
2022-12-16T15:07:20.699Z,13.03
2022-12-16T15:10:11.494Z,12.47
2022-12-16T15:13:00.194Z,12.53
2022-12-16T15:16:17.252Z,12.10
2022-12-16T15:19:07.202Z,12.20
2022-12-16T15:21:53.492Z,11.47
2022-12-16T15:24:42.406Z,10.70
2022-12-16T15:27:39.327Z,11.10
2022-12-16T15:31:02.107Z,12.57
2022-12-16T15:33:57.862Z,10.70
2022-12-16T15:36:50.797Z,10.33
2022-12-16T15:39:48.325Z,12.80
2022-12-16T15:42:40.019Z,10.27
2022-12-16T15:45:36.895Z,11.03
2022-12-16T15:48:39.060Z,9.73
2022-12-16T15:52:15.254Z,10.43
2022-12-16T15:55:12.164Z,11.57
2022-12-16T15:57:58.307Z,10.57
2022-12-16T16:00:49.004Z,10.43
2022-12-16T16:03:46.855Z,10.90
2022-12-16T16:06:57.107Z,12.60
2022-12-16T16:09:47.317Z,11.40
2022-12-16T16:12:34.678Z,11.83
2022-12-16T16:15:20.879Z,11.50
2022-12-16T16:18:08.747Z,10.50
2022-12-16T16:20:54.100Z,11.63
2022-12-16T16:23:39.528Z,11.43
2022-12-16T16:26:24.970Z,10.97
2022-12-16T16:29:10.166Z,11.30
2022-12-16T16:31:59.405Z,12.27
2022-12-16T16:34:48.529Z,10.53
2022-12-16T16:37:36.457Z,11.07
2022-12-16T16:40:37.022Z,10.87
2022-12-16T16:43:22.193Z,11.30
2022-12-16T16:46:13.186Z,10.57
2022-12-16T16:48:58.925Z,11.50
2022-12-16T16:51:44.352Z,9.80
2022-12-16T16:54:29.638Z,12.07
2022-12-16T16:57:14.780Z,10.37
2022-12-16T17:00:00.214Z,13.23
2022-12-16T17:02:45.689Z,10.33
2022-12-16T17:05:31.500Z,11.60
2022-12-16T17:08:16.945Z,9.63
2022-12-16T17:11:02.704Z,10.47
2022-12-16T17:13:48.006Z,20.30
2022-12-16T17:16:33.225Z,12.00
2022-12-16T17:19:18.337Z,12.20
2022-12-16T17:22:03.665Z,12.50
2022-12-16T17:24:53.790Z,12.20
2022-12-16T17:27:42.558Z,11.00
2022-12-16T17:30:46.608Z,10.90
2022-12-16T17:33:34.183Z,10.13
2022-12-16T17:36:19.998Z,11.60
2022-12-16T17:39:05.780Z,10.33
2022-12-16T17:41:52.216Z,13.63
2022-12-16T17:44:38.284Z,12.73
2022-12-16T17:47:23.576Z,11.30
2022-12-16T17:50:08.863Z,10.73
2022-12-16T17:52:54.276Z,11.50
2022-12-16T17:55:39.621Z,9.63
2022-12-16T17:58:24.845Z,9.80
2022-12-16T18:01:10.333Z,10.43
2022-12-16T18:03:55.629Z,10.37
2022-12-16T18:06:40.953Z,8.83
2022-12-16T18:09:26.233Z,10.27
2022-12-16T18:12:11.521Z,10.33
2022-12-16T18:14:56.784Z,10.27
2022-12-16T18:17:42.024Z,9.40
2022-12-16T18:20:27.277Z,9.60
2022-12-16T18:23:12.543Z,8.87
2022-12-16T18:25:57.752Z,10.03
2022-12-16T18:28:43.251Z,10.77
2022-12-16T18:31:28.658Z,30.50
2022-12-16T18:34:13.965Z,33.53
2022-12-16T18:36:59.266Z,29.23
2022-12-16T18:39:44.705Z,27.20
2022-12-16T18:42:30.049Z,24.07
2022-12-16T18:45:15.275Z,23.13
2022-12-16T18:48:00.613Z,23.53
2022-12-16T18:50:45.916Z,21.83
2022-12-16T18:53:31.784Z,20.40
2022-12-16T18:56:22.508Z,20.50
2022-12-16T18:59:07.856Z,18.23
2022-12-16T19:02:13.143Z,17.60
2022-12-16T19:04:57.987Z,18.90
2022-12-16T19:07:43.144Z,18.17
2022-12-16T19:10:28.378Z,17.03
2022-12-16T19:13:15.409Z,17.90
2022-12-16T19:16:00.832Z,16.07
2022-12-16T19:18:46.279Z,17.90
2022-12-16T19:21:31.511Z,18.60
2022-12-16T19:24:16.802Z,17.90
2022-12-16T19:27:02.194Z,17.63
2022-12-16T19:29:47.493Z,17.73
2022-12-16T19:32:32.970Z,16.40
2022-12-16T19:35:18.092Z,16.97
2022-12-16T19:38:03.497Z,17.50
2022-12-16T19:40:48.707Z,17.63
2022-12-16T19:43:34.353Z,17.10
2022-12-16T19:46:19.765Z,16.90
2022-12-16T19:49:04.930Z,16.47
2022-12-16T19:51:50.223Z,16.33
2022-12-16T19:54:35.551Z,15.70
2022-12-16T19:57:20.774Z,16.90
2022-12-16T20:00:06.159Z,16.00
2022-12-16T20:02:51.384Z,15.40
2022-12-16T20:05:57.079Z,17.03
2022-12-16T20:08:42.146Z,13.97
2022-12-16T20:11:27.897Z,15.27
2022-12-16T20:14:14.157Z,15.17
2022-12-16T20:16:59.908Z,15.63
2022-12-16T20:19:45.312Z,13.63
2022-12-16T20:22:30.683Z,14.93
2022-12-16T20:25:15.956Z,14.70
2022-12-16T20:28:01.267Z,14.27
2022-12-16T20:30:46.648Z,14.87
2022-12-16T20:33:33.455Z,13.70
2022-12-16T20:36:21.001Z,13.50
2022-12-16T20:39:06.174Z,13.50
2022-12-16T20:41:51.769Z,13.37
2022-12-16T20:44:37.121Z,13.37
2022-12-16T20:47:23.919Z,14.70
2022-12-16T20:50:09.229Z,12.53
2022-12-16T20:52:54.637Z,13.17
2022-12-16T20:55:41.515Z,12.77
2022-12-16T20:58:26.601Z,12.20
2022-12-16T21:01:12.753Z,12.90
2022-12-16T21:03:58.124Z,12.93
2022-12-16T21:06:43.435Z,12.43
2022-12-16T21:09:28.870Z,11.90
2022-12-16T21:12:14.291Z,12.63
2022-12-16T21:14:59.576Z,13.00
2022-12-16T21:17:44.830Z,11.67
2022-12-16T21:20:30.084Z,12.80
2022-12-16T21:23:23.519Z,12.17
2022-12-16T21:26:09.452Z,11.90
2022-12-16T21:28:56.119Z,12.73
2022-12-16T21:31:41.476Z,11.43
2022-12-16T21:34:26.865Z,12.50
2022-12-16T21:37:12.179Z,12.20
2022-12-16T21:39:58.002Z,11.57
2022-12-16T21:42:44.491Z,10.43
2022-12-16T21:45:30.637Z,11.03
2022-12-16T21:48:15.917Z,11.50
2022-12-16T21:51:10.374Z,11.07
2022-12-16T21:53:55.659Z,10.27
2022-12-16T21:56:42.076Z,11.47
2022-12-16T21:59:27.954Z,11.30
2022-12-16T22:02:13.315Z,11.40
2022-12-16T22:04:58.621Z,10.97
2022-12-16T22:07:45.508Z,11.13
2022-12-16T22:10:33.880Z,11.83
2022-12-16T22:13:19.142Z,12.50
2022-12-16T22:16:17.452Z,10.93
2022-12-16T22:19:02.759Z,11.63
2022-12-16T22:21:48.353Z,10.60
2022-12-16T22:24:33.568Z,10.03
2022-12-16T22:27:18.841Z,10.77
2022-12-16T22:30:04.621Z,10.50
2022-12-16T22:33:00.532Z,10.50
2022-12-16T22:35:45.829Z,10.93
2022-12-16T22:38:31.236Z,11.57
2022-12-16T22:41:17.707Z,10.70
2022-12-16T22:44:03.818Z,10.90
2022-12-16T22:46:49.272Z,10.97
2022-12-16T22:49:34.516Z,10.50
2022-12-16T22:52:19.967Z,10.30
2022-12-16T22:55:05.348Z,10.73
2022-12-16T22:57:53.505Z,11.20
2022-12-16T23:00:38.806Z,10.30
2022-12-16T23:03:24.674Z,9.93
2022-12-16T23:06:09.992Z,10.30
2022-12-16T23:08:55.289Z,10.40
2022-12-16T23:11:49.961Z,9.50
2022-12-16T23:14:40.918Z,11.00
2022-12-16T23:17:28.530Z,10.67
2022-12-16T23:20:13.717Z,10.60
2022-12-16T23:22:59.098Z,10.53
2022-12-16T23:25:44.479Z,10.90
2022-12-16T23:28:29.772Z,11.13
2022-12-16T23:31:17.195Z,9.70
2022-12-16T23:34:02.317Z,9.70
2022-12-16T23:36:47.783Z,9.93
2022-12-16T23:39:33.015Z,10.60
2022-12-16T23:42:18.279Z,10.50
2022-12-16T23:45:17.408Z,9.80
2022-12-16T23:48:02.702Z,9.43
2022-12-16T23:50:47.987Z,9.60
2022-12-16T23:53:33.392Z,10.07
2022-12-16T23:56:19.940Z,9.40
2022-12-16T23:59:08.043Z,9.93
